Sea Power — D5LT9 — position and weather

sailwx.info

Track history (hours):
 
Tides and Currents Weather Stations Pressure Air Temp Water Temp Dewpoint Dewpoint Depression Visibility Wind Speed Wind Dir Waves Ship Positions

Sea Power

Last reported at 2018-Feb-15 05:58 UTC. Time now 2018-Feb-22 05:23 UTC.
Position N 37°27' E 025°56'.

Length 225 m; draft 12.8 m.

Type: Cargo ship. MMSI: 636017597.

Date/timePositionNaut miles runAvg speedWind from/ knotsBaromVisibWave heightAir tempDewpointWater temp
2018-Feb-15 05:58N 37°27' E 025°56'510.7
2018-Feb-15 05:30N 37°32' E 025°54'610.9
2018-Feb-15 04:59N 37°37' E 025°53'232 8.5
2018-Feb-14 01:40N 40°53' E 028°34'20 8.2
2018-Feb-13 23:16N 40°59' E 028°59'418 9.0
2018-Feb-12 00:43N 44°24' E 037°14'3 9.5
2018-Feb-12 00:23N 44°26' E 037°18'3 7.3
2018-Feb-12 00:00N 44°27' E 037°22'510.3
2018-Feb-11 23:30N 44°28' E 037°29'510.7
2018-Feb-11 23:00N 44°31' E 037°35'510.7
2018-Feb-11 22:30N 44°33' E 037°42'511.0
2018-Feb-11 22:00N 44°37' E 037°48'4 8.3
2018-Feb-11 21:30N 44°40' E 037°51'1 1.4
2018-Feb-11 20:58N 44°41' E 037°51'0 0.0
2018-Feb-11 20:28N 44°41' E 037°51'0 0.1
2018-Feb-11 19:58N 44°41' E 037°51'0 0.1
2018-Feb-11 19:28N 44°41' E 037°51'0 0.1
2018-Feb-11 18:58N 44°41' E 037°51'0 0.0
2018-Feb-11 18:28N 44°41' E 037°51'0 0.3
2018-Feb-11 17:58N 44°41' E 037°51'0 0.2
2018-Feb-11 17:28N 44°41' E 037°51'0 0.1
2018-Feb-11 16:58N 44°41' E 037°51'0 0.0
2018-Feb-11 16:28N 44°41' E 037°51'0 0.0
2018-Feb-11 15:58N 44°41' E 037°51'0 0.0
2018-Feb-11 15:28N 44°41' E 037°51'0 0.1
2018-Feb-11 14:58N 44°41' E 037°51'0 0.0
2018-Feb-11 14:28N 44°41' E 037°51'0 0.0
2018-Feb-11 13:58N 44°41' E 037°51'0 0.0
2018-Feb-11 13:28N 44°41' E 037°51'0 0.0
2018-Feb-11 12:58N 44°41' E 037°51'0 0.0
2018-Feb-11 12:28N 44°41' E 037°51'0 0.1
2018-Feb-11 11:58N 44°41' E 037°51'0 0.0
2018-Feb-11 11:28N 44°41' E 037°51'0 0.2
2018-Feb-11 10:58N 44°41' E 037°51'0 0.6
2018-Feb-11 10:31N 44°41' E 037°51'3 5.9
2018-Feb-11 10:00N 44°43' E 037°48'1 1.4
2018-Feb-11 09:28N 44°44' E 037°47'0 0.0
2018-Feb-11 09:01N 44°44' E 037°47'0 0.0
2018-Feb-11 08:31N 44°44' E 037°47'0 0.0
2018-Feb-11 08:01N 44°44' E 037°47'0 0.0
2018-Feb-11 07:31N 44°44' E 037°47'0 0.0
2018-Feb-11 07:01N 44°44' E 037°47'0 0.0
2018-Feb-11 06:28N 44°44' E 037°47'0 0.0
2018-Feb-11 05:58N 44°44' E 037°47'0 0.0
2018-Feb-11 05:31N 44°44' E 037°47'0 0.0
2018-Feb-11 05:01N 44°44' E 037°47'0 0.0
2018-Feb-11 04:30N 44°44' E 037°47'0 0.0
2018-Feb-11 03:58N 44°44' E 037°47'0 0.0
2018-Feb-11 03:31N 44°44' E 037°47'0 0.0
2018-Feb-11 03:01N 44°44' E 037°47'0 0.0
2018-Feb-11 02:28N 44°44' E 037°47'0 0.0
2018-Feb-11 02:01N 44°44' E 037°47'0 0.0
2018-Feb-11 01:30N 44°44' E 037°47'0 0.0
2018-Feb-11 01:01N 44°44' E 037°47'0 0.0
2018-Feb-11 00:27N 44°44' E 037°47'0 0.0
2018-Feb-11 00:00N 44°44' E 037°47'0 0.0
2018-Feb-10 23:31N 44°44' E 037°47'0 0.0
2018-Feb-10 22:57N 44°44' E 037°47'0 0.0
2018-Feb-10 22:30N 44°44' E 037°47'0 0.0
2018-Feb-10 21:58N 44°44' E 037°47'0 0.0
2018-Feb-10 21:31N 44°44' E 037°47'0 0.0
2018-Feb-10 20:58N 44°44' E 037°47'0 0.0
2018-Feb-10 20:31N 44°44' E 037°47'0 0.0
2018-Feb-10 19:58N 44°44' E 037°47'0 0.1
2018-Feb-10 19:30N 44°44' E 037°47'0 0.1
2018-Feb-10 19:00N 44°44' E 037°47'0 0.0
2018-Feb-10 18:28N 44°44' E 037°47'0 0.0
2018-Feb-10 18:01N 44°44' E 037°47'0 0.0
2018-Feb-10 17:30N 44°44' E 037°47'0 0.0
2018-Feb-10 17:01N 44°44' E 037°47'0 0.0
2018-Feb-10 16:30N 44°44' E 037°47'0 0.0
2018-Feb-10 16:01N 44°44' E 037°47'0 0.0
2018-Feb-10 15:31N 44°44' E 037°47'0 0.0
2018-Feb-10 15:01N 44°44' E 037°47'0 0.0
2018-Feb-10 14:31N 44°44' E 037°47'0 0.0
2018-Feb-10 14:01N 44°44' E 037°47'0 0.0
2018-Feb-10 13:30N 44°44' E 037°47'0 0.0
2018-Feb-10 12:58N 44°44' E 037°47'0 0.0
2018-Feb-10 12:28N 44°44' E 037°47'0 0.0
2018-Feb-10 11:58N 44°44' E 037°47'0 0.0
2018-Feb-10 11:31N 44°44' E 037°47'0 0.0
2018-Feb-10 11:01N 44°44' E 037°47'0 0.0
2018-Feb-10 10:31N 44°44' E 037°47'0 0.0
2018-Feb-10 10:01N 44°44' E 037°47'0 0.0
2018-Feb-10 09:31N 44°44' E 037°47'0 0.0
2018-Feb-10 09:00N 44°44' E 037°47'0 0.0
2018-Feb-10 08:31N 44°44' E 037°47'0 0.0
2018-Feb-10 08:01N 44°44' E 037°47'0 0.0
2018-Feb-10 07:31N 44°44' E 037°47'0 0.0
2018-Feb-10 07:01N 44°44' E 037°47'0 0.0
2018-Feb-10 06:30N 44°44' E 037°47'0 0.0
2018-Feb-10 06:01N 44°44' E 037°47'0 0.0
2018-Feb-10 05:31N 44°44' E 037°47'0 0.0
2018-Feb-10 04:57N 44°44' E 037°47'0 0.0
2018-Feb-10 04:31N 44°44' E 037°47'0 0.0
2018-Feb-10 04:01N 44°44' E 037°47'0 0.0
2018-Feb-10 03:31N 44°44' E 037°47'0 0.0
2018-Feb-10 02:58N 44°44' E 037°47'0 0.0
2018-Feb-10 02:31N 44°44' E 037°47'0 0.0
2018-Feb-10 01:58N 44°44' E 037°47'0 0.0
2018-Feb-10 01:28N 44°44' E 037°47'0 0.0
2018-Feb-10 01:01N 44°44' E 037°47'0 0.0
2018-Feb-10 00:31N 44°44' E 037°47'0 0.0
2018-Feb-09 23:58N 44°44' E 037°47'0 0.0
2018-Feb-09 23:28N 44°44' E 037°47'0 0.0
2018-Feb-09 22:58N 44°44' E 037°47'0 0.0
2018-Feb-09 22:45N 44°44' E 037°47'0 0.0
2018-Feb-09 22:31N 44°44' E 037°47'0 0.0
2018-Feb-09 21:01N 44°44' E 037°47'0 0.0
2018-Feb-09 20:31N 44°44' E 037°47'0 0.0
2018-Feb-09 19:01N 44°44' E 037°47'0 0.0
2018-Feb-09 17:01N 44°44' E 037°47'0 0.0
2018-Feb-09 16:30N 44°44' E 037°47'0 0.0
2018-Feb-09 16:00N 44°44' E 037°47'0 0.0
2018-Feb-09 12:30N 44°44' E 037°47'0 0.0
2018-Feb-09 12:00N 44°44' E 037°47'0 0.0
2018-Feb-09 11:30N 44°44' E 037°47'0 0.0
2018-Feb-09 01:30N 44°44' E 037°47'5 0.4
2018-Feb-08 12:00N 44°39' E 037°51'5 9.8
2018-Feb-08 11:30N 44°34' E 037°52'3 6.7
2018-Feb-08 11:00N 44°33' E 037°56'1 0.1
2018-Feb-08 01:19N 44°33' E 037°57'0 0.0
2018-Feb-08 00:55N 44°33' E 037°57'0 0.0
2018-Feb-08 00:28N 44°33' E 037°57'0 0.1
2018-Feb-07 23:58N 44°33' E 037°58'0 0.0
2018-Feb-07 23:28N 44°33' E 037°58'0 0.1
2018-Feb-07 22:58N 44°33' E 037°57'0 0.0
2018-Feb-07 22:28N 44°33' E 037°57'0 0.0
2018-Feb-07 21:55N 44°33' E 037°57'0 0.1
2018-Feb-07 21:31N 44°33' E 037°58'0 0.0
2018-Feb-07 09:28N 44°33' E 037°58'0 0.0
2018-Feb-07 08:58N 44°33' E 037°58'0 0.0
2018-Feb-07 08:28N 44°33' E 037°58'0 0.1
2018-Feb-07 07:58N 44°33' E 037°58'0 0.2
2018-Feb-07 07:28N 44°33' E 037°58'0 0.1
2018-Feb-07 06:58N 44°33' E 037°58'0 0.2
2018-Feb-07 06:28N 44°33' E 037°57'0 0.0
2018-Feb-07 05:58N 44°33' E 037°57'0 0.0
2018-Feb-07 05:25N 44°33' E 037°57'0 0.1
2018-Feb-07 04:58N 44°33' E 037°57'0 0.0
2018-Feb-07 04:25N 44°33' E 037°57'0 0.0
2018-Feb-07 03:58N 44°33' E 037°57'0 0.0
2018-Feb-07 03:28N 44°33' E 037°57'0 0.1
2018-Feb-07 02:58N 44°33' E 037°57'0 0.1
2018-Feb-07 02:28N 44°33' E 037°58'0 0.1
2018-Feb-07 01:58N 44°33' E 037°58'0 0.0
2018-Feb-07 01:28N 44°33' E 037°58'0 0.1
2018-Feb-07 00:58N 44°33' E 037°58'0 0.1
2018-Feb-07 00:28N 44°33' E 037°58'0 0.2
2018-Feb-06 23:58N 44°33' E 037°57'0 0.1
2018-Feb-06 23:28N 44°33' E 037°57'0 0.0
2018-Feb-06 22:58N 44°33' E 037°57'0 0.0
2018-Feb-06 22:28N 44°33' E 037°57'0 0.0
2018-Feb-06 21:58N 44°33' E 037°57'0 0.1
2018-Feb-06 21:25N 44°33' E 037°58'0 0.2
2018-Feb-06 20:58N 44°33' E 037°58'0 0.1
2018-Feb-06 20:28N 44°33' E 037°58'0 0.0
2018-Feb-06 19:58N 44°33' E 037°58'0 0.1
2018-Feb-06 19:25N 44°33' E 037°58'0 0.2
2018-Feb-06 18:58N 44°33' E 037°58'0 0.1
2018-Feb-06 18:28N 44°33' E 037°57'0 0.0
2018-Feb-06 17:58N 44°33' E 037°57'0 0.1
2018-Feb-06 17:28N 44°33' E 037°57'0 0.0
2018-Feb-06 16:58N 44°33' E 037°57'0 0.0
2018-Feb-06 16:25N 44°33' E 037°57'0 0.1
2018-Feb-06 15:58N 44°33' E 037°58'0 0.1
2018-Feb-06 15:25N 44°33' E 037°58'0 0.1
2018-Feb-06 14:58N 44°33' E 037°58'0 0.1
2018-Feb-06 14:28N 44°33' E 037°58'0 0.0
2018-Feb-06 13:58N 44°33' E 037°58'0 0.0
2018-Feb-06 13:28N 44°33' E 037°58'0 0.0
2018-Feb-06 12:58N 44°33' E 037°58'0 0.0
2018-Feb-06 12:28N 44°33' E 037°58'0 0.0
2018-Feb-06 11:58N 44°33' E 037°58'0 0.0
2018-Feb-06 11:25N 44°33' E 037°58'0 0.1
2018-Feb-06 10:58N 44°33' E 037°58'0 0.0
2018-Feb-06 10:28N 44°33' E 037°58'0 0.3
2018-Feb-06 09:58N 44°33' E 037°58'0 0.2
2018-Feb-06 09:28N 44°33' E 037°57'0 0.0
2018-Feb-06 08:46N 44°33' E 037°57'0 0.1
2018-Feb-06 08:25N 44°33' E 037°57'0 0.1
2018-Feb-06 07:58N 44°33' E 037°57'0 0.0
2018-Feb-06 07:28N 44°33' E 037°57'0 0.0
2018-Feb-06 06:58N 44°33' E 037°57'0 0.0
2018-Feb-06 06:28N 44°33' E 037°57'0 0.0
2018-Feb-06 05:58N 44°33' E 037°57'0 0.0
2018-Feb-06 05:28N 44°33' E 037°57'0 0.1
2018-Feb-06 04:58N 44°33' E 037°57'0 0.3
2018-Feb-06 04:28N 44°33' E 037°58'0 0.1
2018-Feb-06 03:58N 44°33' E 037°58'0 0.3
2018-Feb-06 03:28N 44°33' E 037°57'0 0.1
2018-Feb-06 02:58N 44°33' E 037°57'0 0.0
2018-Feb-06 02:28N 44°33' E 037°57'0 0.2
2018-Feb-06 01:58N 44°33' E 037°57'0 0.2
2018-Feb-06 01:22N 44°33' E 037°57'0 0.2
2018-Feb-06 00:52N 44°33' E 037°58'0 0.0
2018-Feb-06 00:28N 44°33' E 037°58'0 0.0
2018-Feb-05 23:58N 44°33' E 037°58'0 0.0
2018-Feb-05 23:28N 44°33' E 037°58'0 0.2
2018-Feb-05 22:58N 44°33' E 037°58'0 0.1
2018-Feb-05 22:28N 44°33' E 037°58'0 0.1
2018-Feb-05 21:58N 44°33' E 037°58'0 0.0
2018-Feb-05 21:25N 44°33' E 037°58'0 0.2
2018-Feb-05 20:58N 44°33' E 037°58'0 0.1
2018-Feb-05 20:28N 44°33' E 037°58'0 0.0
2018-Feb-05 19:58N 44°33' E 037°58'0 0.0
2018-Feb-05 19:28N 44°33' E 037°58'0 0.1
2018-Feb-05 18:58N 44°33' E 037°58'0 0.1
2018-Feb-05 18:28N 44°33' E 037°58'0 0.0
2018-Feb-05 17:55N 44°33' E 037°58'0 0.0
2018-Feb-05 17:28N 44°33' E 037°58'0 0.0
2018-Feb-05 16:58N 44°33' E 037°58'0 0.0
2018-Feb-05 16:28N 44°33' E 037°58'0 0.1
2018-Feb-05 15:58N 44°33' E 037°58'0 0.1
2018-Feb-05 15:28N 44°33' E 037°58'0 0.1
2018-Feb-05 14:58N 44°33' E 037°58'0 0.1
2018-Feb-05 14:28N 44°33' E 037°58'0 0.1
2018-Feb-05 13:58N 44°33' E 037°58'0 0.0
2018-Feb-05 13:25N 44°33' E 037°58'0 0.1
2018-Feb-05 12:58N 44°33' E 037°58'0 0.1
2018-Feb-05 12:25N 44°33' E 037°58'0 0.0
2018-Feb-05 11:58N 44°33' E 037°58'0 0.0
2018-Feb-05 11:28N 44°33' E 037°58'0 0.0
2018-Feb-05 10:58N 44°33' E 037°58'0 0.0
2018-Feb-05 10:28N 44°33' E 037°58'0 0.1
2018-Feb-05 09:58N 44°33' E 037°58'0 0.0
2018-Feb-05 09:28N 44°33' E 037°58'0 0.1
2018-Feb-05 08:58N 44°33' E 037°58'0 0.1
2018-Feb-05 08:28N 44°33' E 037°58'0 0.0
2018-Feb-05 07:55N 44°33' E 037°58'0 0.0
2018-Feb-05 07:28N 44°33' E 037°58'0 0.1
2018-Feb-05 06:58N 44°33' E 037°58'0 0.0
2018-Feb-05 06:28N 44°33' E 037°58'  
Track history (hours):
 
Tides and Currents Weather Stations Pressure Air Temp Water Temp Dewpoint Dewpoint Depression Visibility Wind Speed Wind Dir Waves Ship Positions

Sea Power

Last reported at 2018-Feb-15 05:58 UTC. Time now 2018-Feb-22 05:23 UTC.
Position N 37°27' E 025°56'.

Length 225 m; draft 12.8 m.

Type: Cargo ship. MMSI: 636017597.

Date/timePositionNaut miles runAvg speedWind from/ knotsBaromVisibWave heightAir tempDewpointWater temp
2018-Feb-15 05:58N 37°27' E 025°56'510.7
2018-Feb-15 05:30N 37°32' E 025°54'610.9
2018-Feb-15 04:59N 37°37' E 025°53'232 8.5
2018-Feb-14 01:40N 40°53' E 028°34'20 8.2
2018-Feb-13 23:16N 40°59' E 028°59'418 9.0
2018-Feb-12 00:43N 44°24' E 037°14'3 9.5
2018-Feb-12 00:23N 44°26' E 037°18'3 7.3
2018-Feb-12 00:00N 44°27' E 037°22'510.3
2018-Feb-11 23:30N 44°28' E 037°29'510.7
2018-Feb-11 23:00N 44°31' E 037°35'510.7
2018-Feb-11 22:30N 44°33' E 037°42'511.0
2018-Feb-11 22:00N 44°37' E 037°48'4 8.3
2018-Feb-11 21:30N 44°40' E 037°51'1 1.4
2018-Feb-11 20:58N 44°41' E 037°51'0 0.0
2018-Feb-11 20:28N 44°41' E 037°51'0 0.1
2018-Feb-11 19:58N 44°41' E 037°51'0 0.1
2018-Feb-11 19:28N 44°41' E 037°51'0 0.1
2018-Feb-11 18:58N 44°41' E 037°51'0 0.0
2018-Feb-11 18:28N 44°41' E 037°51'0 0.3
2018-Feb-11 17:58N 44°41' E 037°51'0 0.2
2018-Feb-11 17:28N 44°41' E 037°51'0 0.1
2018-Feb-11 16:58N 44°41' E 037°51'0 0.0
2018-Feb-11 16:28N 44°41' E 037°51'0 0.0
2018-Feb-11 15:58N 44°41' E 037°51'0 0.0
2018-Feb-11 15:28N 44°41' E 037°51'0 0.1
2018-Feb-11 14:58N 44°41' E 037°51'0 0.0
2018-Feb-11 14:28N 44°41' E 037°51'0 0.0
2018-Feb-11 13:58N 44°41' E 037°51'0 0.0
2018-Feb-11 13:28N 44°41' E 037°51'0 0.0
2018-Feb-11 12:58N 44°41' E 037°51'0 0.0
2018-Feb-11 12:28N 44°41' E 037°51'0 0.1
2018-Feb-11 11:58N 44°41' E 037°51'0 0.0
2018-Feb-11 11:28N 44°41' E 037°51'0 0.2
2018-Feb-11 10:58N 44°41' E 037°51'0 0.6
2018-Feb-11 10:31N 44°41' E 037°51'3 5.9
2018-Feb-11 10:00N 44°43' E 037°48'1 1.4
2018-Feb-11 09:28N 44°44' E 037°47'0 0.0
2018-Feb-11 09:01N 44°44' E 037°47'0 0.0
2018-Feb-11 08:31N 44°44' E 037°47'0 0.0
2018-Feb-11 08:01N 44°44' E 037°47'0 0.0
2018-Feb-11 07:31N 44°44' E 037°47'0 0.0
2018-Feb-11 07:01N 44°44' E 037°47'0 0.0
2018-Feb-11 06:28N 44°44' E 037°47'0 0.0
2018-Feb-11 05:58N 44°44' E 037°47'0 0.0
2018-Feb-11 05:31N 44°44' E 037°47'0 0.0
2018-Feb-11 05:01N 44°44' E 037°47'0 0.0
2018-Feb-11 04:30N 44°44' E 037°47'0 0.0
2018-Feb-11 03:58N 44°44' E 037°47'0 0.0
2018-Feb-11 03:31N 44°44' E 037°47'0 0.0
2018-Feb-11 03:01N 44°44' E 037°47'0 0.0
2018-Feb-11 02:28N 44°44' E 037°47'0 0.0
2018-Feb-11 02:01N 44°44' E 037°47'0 0.0
2018-Feb-11 01:30N 44°44' E 037°47'0 0.0
2018-Feb-11 01:01N 44°44' E 037°47'0 0.0
2018-Feb-11 00:27N 44°44' E 037°47'0 0.0
2018-Feb-11 00:00N 44°44' E 037°47'0 0.0
2018-Feb-10 23:31N 44°44' E 037°47'0 0.0
2018-Feb-10 22:57N 44°44' E 037°47'0 0.0
2018-Feb-10 22:30N 44°44' E 037°47'0 0.0
2018-Feb-10 21:58N 44°44' E 037°47'0 0.0
2018-Feb-10 21:31N 44°44' E 037°47'0 0.0
2018-Feb-10 20:58N 44°44' E 037°47'0 0.0
2018-Feb-10 20:31N 44°44' E 037°47'0 0.0
2018-Feb-10 19:58N 44°44' E 037°47'0 0.1
2018-Feb-10 19:30N 44°44' E 037°47'0 0.1
2018-Feb-10 19:00N 44°44' E 037°47'0 0.0
2018-Feb-10 18:28N 44°44' E 037°47'0 0.0
2018-Feb-10 18:01N 44°44' E 037°47'0 0.0
2018-Feb-10 17:30N 44°44' E 037°47'0 0.0
2018-Feb-10 17:01N 44°44' E 037°47'0 0.0
2018-Feb-10 16:30N 44°44' E 037°47'0 0.0
2018-Feb-10 16:01N 44°44' E 037°47'0 0.0
2018-Feb-10 15:31N 44°44' E 037°47'0 0.0
2018-Feb-10 15:01N 44°44' E 037°47'0 0.0
2018-Feb-10 14:31N 44°44' E 037°47'0 0.0
2018-Feb-10 14:01N 44°44' E 037°47'0 0.0
2018-Feb-10 13:30N 44°44' E 037°47'0 0.0
2018-Feb-10 12:58N 44°44' E 037°47'0 0.0
2018-Feb-10 12:28N 44°44' E 037°47'0 0.0
2018-Feb-10 11:58N 44°44' E 037°47'0 0.0
2018-Feb-10 11:31N 44°44' E 037°47'0 0.0
2018-Feb-10 11:01N 44°44' E 037°47'0 0.0
2018-Feb-10 10:31N 44°44' E 037°47'0 0.0
2018-Feb-10 10:01N 44°44' E 037°47'0 0.0
2018-Feb-10 09:31N 44°44' E 037°47'0 0.0
2018-Feb-10 09:00N 44°44' E 037°47'0 0.0
2018-Feb-10 08:31N 44°44' E 037°47'0 0.0
2018-Feb-10 08:01N 44°44' E 037°47'0 0.0
2018-Feb-10 07:31N 44°44' E 037°47'0 0.0
2018-Feb-10 07:01N 44°44' E 037°47'0 0.0
2018-Feb-10 06:30N 44°44' E 037°47'0 0.0
2018-Feb-10 06:01N 44°44' E 037°47'0 0.0
2018-Feb-10 05:31N 44°44' E 037°47'0 0.0
2018-Feb-10 04:57N 44°44' E 037°47'0 0.0
2018-Feb-10 04:31N 44°44' E 037°47'0 0.0
2018-Feb-10 04:01N 44°44' E 037°47'0 0.0
2018-Feb-10 03:31N 44°44' E 037°47'0 0.0
2018-Feb-10 02:58N 44°44' E 037°47'0 0.0
2018-Feb-10 02:31N 44°44' E 037°47'0 0.0
2018-Feb-10 01:58N 44°44' E 037°47'0 0.0
2018-Feb-10 01:28N 44°44' E 037°47'0 0.0
2018-Feb-10 01:01N 44°44' E 037°47'0 0.0
2018-Feb-10 00:31N 44°44' E 037°47'0 0.0
2018-Feb-09 23:58N 44°44' E 037°47'0 0.0
2018-Feb-09 23:28N 44°44' E 037°47'0 0.0
2018-Feb-09 22:58N 44°44' E 037°47'0 0.0
2018-Feb-09 22:45N 44°44' E 037°47'0 0.0
2018-Feb-09 22:31N 44°44' E 037°47'0 0.0
2018-Feb-09 21:01N 44°44' E 037°47'0 0.0
2018-Feb-09 20:31N 44°44' E 037°47'0 0.0
2018-Feb-09 19:01N 44°44' E 037°47'0 0.0
2018-Feb-09 17:01N 44°44' E 037°47'0 0.0
2018-Feb-09 16:30N 44°44' E 037°47'0 0.0
2018-Feb-09 16:00N 44°44' E 037°47'0 0.0
2018-Feb-09 12:30N 44°44' E 037°47'0 0.0
2018-Feb-09 12:00N 44°44' E 037°47'0 0.0
2018-Feb-09 11:30N 44°44' E 037°47'0 0.0
2018-Feb-09 01:30N 44°44' E 037°47'5 0.4
2018-Feb-08 12:00N 44°39' E 037°51'5 9.8
2018-Feb-08 11:30N 44°34' E 037°52'3 6.7
2018-Feb-08 11:00N 44°33' E 037°56'1 0.1
2018-Feb-08 01:19N 44°33' E 037°57'0 0.0
2018-Feb-08 00:55N 44°33' E 037°57'0 0.0
2018-Feb-08 00:28N 44°33' E 037°57'0 0.1
2018-Feb-07 23:58N 44°33' E 037°58'0 0.0
2018-Feb-07 23:28N 44°33' E 037°58'0 0.1
2018-Feb-07 22:58N 44°33' E 037°57'0 0.0
2018-Feb-07 22:28N 44°33' E 037°57'0 0.0
2018-Feb-07 21:55N 44°33' E 037°57'0 0.1
2018-Feb-07 21:31N 44°33' E 037°58'0 0.0
2018-Feb-07 09:28N 44°33' E 037°58'0 0.0
2018-Feb-07 08:58N 44°33' E 037°58'0 0.0
2018-Feb-07 08:28N 44°33' E 037°58'0 0.1
2018-Feb-07 07:58N 44°33' E 037°58'0 0.2
2018-Feb-07 07:28N 44°33' E 037°58'0 0.1
2018-Feb-07 06:58N 44°33' E 037°58'0 0.2
2018-Feb-07 06:28N 44°33' E 037°57'0 0.0
2018-Feb-07 05:58N 44°33' E 037°57'0 0.0
2018-Feb-07 05:25N 44°33' E 037°57'0 0.1
2018-Feb-07 04:58N 44°33' E 037°57'0 0.0
2018-Feb-07 04:25N 44°33' E 037°57'0 0.0
2018-Feb-07 03:58N 44°33' E 037°57'0 0.0
2018-Feb-07 03:28N 44°33' E 037°57'0 0.1
2018-Feb-07 02:58N 44°33' E 037°57'0 0.1
2018-Feb-07 02:28N 44°33' E 037°58'0 0.1
2018-Feb-07 01:58N 44°33' E 037°58'0 0.0
2018-Feb-07 01:28N 44°33' E 037°58'0 0.1
2018-Feb-07 00:58N 44°33' E 037°58'0 0.1
2018-Feb-07 00:28N 44°33' E 037°58'0 0.2
2018-Feb-06 23:58N 44°33' E 037°57'0 0.1
2018-Feb-06 23:28N 44°33' E 037°57'0 0.0
2018-Feb-06 22:58N 44°33' E 037°57'0 0.0
2018-Feb-06 22:28N 44°33' E 037°57'0 0.0
2018-Feb-06 21:58N 44°33' E 037°57'0 0.1
2018-Feb-06 21:25N 44°33' E 037°58'0 0.2
2018-Feb-06 20:58N 44°33' E 037°58'0 0.1
2018-Feb-06 20:28N 44°33' E 037°58'0 0.0
2018-Feb-06 19:58N 44°33' E 037°58'0 0.1
2018-Feb-06 19:25N 44°33' E 037°58'0 0.2
2018-Feb-06 18:58N 44°33' E 037°58'0 0.1
2018-Feb-06 18:28N 44°33' E 037°57'0 0.0
2018-Feb-06 17:58N 44°33' E 037°57'0 0.1
2018-Feb-06 17:28N 44°33' E 037°57'0 0.0
2018-Feb-06 16:58N 44°33' E 037°57'0 0.0
2018-Feb-06 16:25N 44°33' E 037°57'0 0.1
2018-Feb-06 15:58N 44°33' E 037°58'0 0.1
2018-Feb-06 15:25N 44°33' E 037°58'0 0.1
2018-Feb-06 14:58N 44°33' E 037°58'0 0.1
2018-Feb-06 14:28N 44°33' E 037°58'0 0.0
2018-Feb-06 13:58N 44°33' E 037°58'0 0.0
2018-Feb-06 13:28N 44°33' E 037°58'0 0.0
2018-Feb-06 12:58N 44°33' E 037°58'0 0.0
2018-Feb-06 12:28N 44°33' E 037°58'0 0.0
2018-Feb-06 11:58N 44°33' E 037°58'0 0.0
2018-Feb-06 11:25N 44°33' E 037°58'0 0.1
2018-Feb-06 10:58N 44°33' E 037°58'0 0.0
2018-Feb-06 10:28N 44°33' E 037°58'0 0.3
2018-Feb-06 09:58N 44°33' E 037°58'0 0.2
2018-Feb-06 09:28N 44°33' E 037°57'0 0.0
2018-Feb-06 08:46N 44°33' E 037°57'0 0.1
2018-Feb-06 08:25N 44°33' E 037°57'0 0.1
2018-Feb-06 07:58N 44°33' E 037°57'0 0.0
2018-Feb-06 07:28N 44°33' E 037°57'0 0.0
2018-Feb-06 06:58N 44°33' E 037°57'0 0.0
2018-Feb-06 06:28N 44°33' E 037°57'0 0.0
2018-Feb-06 05:58N 44°33' E 037°57'0 0.0
2018-Feb-06 05:28N 44°33' E 037°57'0 0.1
2018-Feb-06 04:58N 44°33' E 037°57'0 0.3
2018-Feb-06 04:28N 44°33' E 037°58'0 0.1
2018-Feb-06 03:58N 44°33' E 037°58'0 0.3
2018-Feb-06 03:28N 44°33' E 037°57'0 0.1
2018-Feb-06 02:58N 44°33' E 037°57'0 0.0
2018-Feb-06 02:28N 44°33' E 037°57'0 0.2
2018-Feb-06 01:58N 44°33' E 037°57'0 0.2
2018-Feb-06 01:22N 44°33' E 037°57'0 0.2
2018-Feb-06 00:52N 44°33' E 037°58'0 0.0
2018-Feb-06 00:28N 44°33' E 037°58'0 0.0
2018-Feb-05 23:58N 44°33' E 037°58'0 0.0
2018-Feb-05 23:28N 44°33' E 037°58'0 0.2
2018-Feb-05 22:58N 44°33' E 037°58'0 0.1
2018-Feb-05 22:28N 44°33' E 037°58'0 0.1
2018-Feb-05 21:58N 44°33' E 037°58'0 0.0
2018-Feb-05 21:25N 44°33' E 037°58'0 0.2
2018-Feb-05 20:58N 44°33' E 037°58'0 0.1
2018-Feb-05 20:28N 44°33' E 037°58'0 0.0
2018-Feb-05 19:58N 44°33' E 037°58'0 0.0
2018-Feb-05 19:28N 44°33' E 037°58'0 0.1
2018-Feb-05 18:58N 44°33' E 037°58'0 0.1
2018-Feb-05 18:28N 44°33' E 037°58'0 0.0
2018-Feb-05 17:55N 44°33' E 037°58'0 0.0
2018-Feb-05 17:28N 44°33' E 037°58'0 0.0
2018-Feb-05 16:58N 44°33' E 037°58'0 0.0
2018-Feb-05 16:28N 44°33' E 037°58'0 0.1
2018-Feb-05 15:58N 44°33' E 037°58'0 0.1
2018-Feb-05 15:28N 44°33' E 037°58'0 0.1
2018-Feb-05 14:58N 44°33' E 037°58'0 0.1
2018-Feb-05 14:28N 44°33' E 037°58'0 0.1
2018-Feb-05 13:58N 44°33' E 037°58'0 0.0
2018-Feb-05 13:25N 44°33' E 037°58'0 0.1
2018-Feb-05 12:58N 44°33' E 037°58'0 0.1
2018-Feb-05 12:25N 44°33' E 037°58'0 0.0
2018-Feb-05 11:58N 44°33' E 037°58'0 0.0
2018-Feb-05 11:28N 44°33' E 037°58'0 0.0
2018-Feb-05 10:58N 44°33' E 037°58'0 0.0
2018-Feb-05 10:28N 44°33' E 037°58'0 0.1
2018-Feb-05 09:58N 44°33' E 037°58'0 0.0
2018-Feb-05 09:28N 44°33' E 037°58'0 0.1
2018-Feb-05 08:58N 44°33' E 037°58'0 0.1
2018-Feb-05 08:28N 44°33' E 037°58'0 0.0
2018-Feb-05 07:55N 44°33' E 037°58'0 0.0
2018-Feb-05 07:28N 44°33' E 037°58'0 0.1
2018-Feb-05 06:58N 44°33' E 037°58'0 0.0
2018-Feb-05 06:28N 44°33' E 037°58'  

Dump ship's entire track history